createdAt,value
2023-09-11T00:02:22.180Z,99503.19
2023-09-11T00:07:26.047Z,99486.50
2023-09-11T00:12:29.593Z,99477.00
2023-09-11T00:17:35.385Z,99482.88
2023-09-11T00:22:39.046Z,99482.47
2023-09-11T00:27:42.202Z,99482.00
2023-09-11T00:32:46.804Z,99484.56
2023-09-11T00:37:50.058Z,99474.81
2023-09-11T00:42:53.267Z,99472.03
2023-09-11T00:47:57.962Z,99472.28
2023-09-11T00:53:01.770Z,99469.84
2023-09-11T00:58:05.334Z,99469.91
2023-09-11T01:03:10.110Z,99461.16
2023-09-11T01:08:13.789Z,99452.84
2023-09-11T01:13:17.667Z,99446.84
2023-09-11T01:18:29.540Z,99455.63
2023-09-11T01:23:52.911Z,99451.00
2023-09-11T01:29:16.247Z,99453.13
2023-09-11T01:34:19.479Z,99448.81
2023-09-11T01:39:22.694Z,99450.25
2023-09-11T01:44:40.026Z,99453.38
2023-09-11T01:49:45.229Z,99446.44
2023-09-11T01:54:50.099Z,99455.59
2023-09-11T01:59:54.700Z,99456.19
2023-09-11T02:04:58.278Z,99457.63
2023-09-11T02:10:02.014Z,99464.03
2023-09-11T02:15:08.255Z,99462.56
2023-09-11T02:20:11.999Z,99457.94
2023-09-11T02:25:15.353Z,99458.31
2023-09-11T02:30:19.895Z,99458.50
2023-09-11T02:35:23.204Z,99454.25
2023-09-11T02:40:26.788Z,99461.41
2023-09-11T02:45:31.296Z,99455.28
2023-09-11T02:50:34.764Z,99445.53
2023-09-11T02:55:38.845Z,99445.31
2023-09-11T03:00:43.762Z,99441.84
2023-09-11T03:05:47.029Z,99435.00
2023-09-11T03:10:50.231Z,99427.31
2023-09-11T03:15:54.825Z,99435.00
2023-09-11T03:20:58.091Z,99441.44
2023-09-11T03:26:01.725Z,99432.50
2023-09-11T03:31:06.177Z,99436.22
2023-09-11T03:36:09.578Z,99426.19
2023-09-11T03:41:12.800Z,99423.84
2023-09-11T03:46:17.779Z,99430.09
2023-09-11T03:51:21.017Z,99425.47
2023-09-11T03:56:24.322Z,99419.63
2023-09-11T04:01:29.423Z,99426.31
2023-09-11T04:06:32.659Z,99422.25
2023-09-11T04:11:36.191Z,99417.63
2023-09-11T04:16:40.841Z,99413.66
2023-09-11T04:21:44.004Z,99424.69
2023-09-11T04:26:47.184Z,99419.28
2023-09-11T04:31:51.757Z,99413.53
2023-09-11T04:36:54.927Z,99413.91
2023-09-11T04:41:58.209Z,99413.63
2023-09-11T04:47:03.145Z,99416.00
2023-09-11T04:52:06.523Z,99415.44
2023-09-11T04:57:09.672Z,99404.50
2023-09-11T05:02:14.145Z,99409.31
2023-09-11T05:07:17.288Z,99410.22
2023-09-11T05:12:20.563Z,99419.28
2023-09-11T05:17:25.200Z,99415.44
2023-09-11T05:22:28.395Z,99425.94
2023-09-11T05:27:31.558Z,99429.00
2023-09-11T05:32:36.047Z,99429.28
2023-09-11T05:37:39.725Z,99426.13
2023-09-11T05:42:43.897Z,99437.16
2023-09-11T05:47:48.635Z,99427.94
2023-09-11T05:52:51.864Z,99427.81
2023-09-11T05:57:55.001Z,99435.28
2023-09-11T06:02:59.538Z,99443.81
2023-09-11T06:08:03.749Z,99448.59
2023-09-11T06:13:07.144Z,99434.78
2023-09-11T06:18:14.135Z,99444.41
2023-09-11T06:23:17.892Z,99436.09
2023-09-11T06:28:22.004Z,99435.72
2023-09-11T06:33:40.889Z,99442.56
2023-09-11T06:38:45.151Z,99438.22
2023-09-11T06:43:48.841Z,99431.53
2023-09-11T06:48:53.712Z,99437.25
2023-09-11T06:53:57.343Z,99437.28
2023-09-11T06:59:00.764Z,99435.19
2023-09-11T07:04:05.762Z,99441.31
2023-09-11T07:09:09.531Z,99439.88
2023-09-11T07:14:14.074Z,99431.47
2023-09-11T07:19:18.591Z,99425.31
2023-09-11T07:24:21.847Z,99421.06
2023-09-11T07:29:28.225Z,99430.13
2023-09-11T07:34:32.859Z,99432.34
2023-09-11T07:39:36.036Z,99430.25
2023-09-11T07:44:39.164Z,99439.22
2023-09-11T07:49:43.652Z,99432.94
2023-09-11T07:54:46.836Z,99432.41
2023-09-11T07:59:50.070Z,99432.00
2023-09-11T08:04:54.603Z,99446.09
2023-09-11T08:10:00.017Z,99447.75
2023-09-11T08:15:04.501Z,99433.09
2023-09-11T08:20:10.881Z,99434.34
2023-09-11T08:25:14.864Z,99434.16
2023-09-11T08:30:18.381Z,99423.94
2023-09-11T08:35:22.855Z,99430.47
2023-09-11T08:40:30.997Z,99427.22
2023-09-11T08:45:34.253Z,99431.81
2023-09-11T08:50:51.836Z,99431.00
2023-09-11T08:55:57.770Z,99428.72
2023-09-11T09:01:03.486Z,99429.47
2023-09-11T09:06:08.412Z,99430.72
2023-09-11T09:11:12.569Z,99423.47
2023-09-11T09:16:15.802Z,99421.78
2023-09-11T09:21:26.752Z,99424.59
2023-09-11T09:26:31.055Z,99422.84
2023-09-11T09:31:34.833Z,99413.88
2023-09-11T09:36:49.979Z,99409.72
2023-09-11T09:41:54.894Z,99399.94
2023-09-11T09:46:58.961Z,99414.38
2023-09-11T09:52:05.606Z,99402.50
2023-09-11T09:57:12.192Z,99391.81
2023-09-11T10:02:16.109Z,99385.22
2023-09-11T10:07:37.178Z,99397.78
2023-09-11T10:12:40.602Z,99393.88
2023-09-11T10:17:44.780Z,99379.69
2023-09-11T10:22:49.853Z,99372.25
2023-09-11T10:27:59.113Z,99384.72
2023-09-11T10:33:04.663Z,99363.13
2023-09-11T10:38:10.672Z,99365.00
2023-09-11T10:43:14.124Z,99361.75
2023-09-11T10:48:30.515Z,99359.66
2023-09-11T10:53:35.927Z,99352.47
2023-09-11T10:58:41.121Z,99355.03
2023-09-11T11:03:45.113Z,99347.56
2023-09-11T11:08:50.768Z,99351.59
2023-09-11T11:14:13.815Z,99330.22
2023-09-11T11:19:26.854Z,99320.41
2023-09-11T11:24:36.104Z,99323.59
2023-09-11T11:29:39.467Z,99317.41
2023-09-11T11:34:46.540Z,99321.03
2023-09-11T11:39:51.904Z,99320.72
2023-09-11T11:44:56.009Z,99316.25
2023-09-11T11:49:59.713Z,99303.53
2023-09-11T11:55:21.426Z,99308.31
2023-09-11T12:00:24.817Z,99305.44
2023-09-11T12:05:28.835Z,99307.84
2023-09-11T12:10:34.265Z,99300.63
2023-09-11T12:15:38.011Z,99303.63
2023-09-11T12:20:53.445Z,99301.78
2023-09-11T12:25:59.931Z,99297.06
2023-09-11T12:31:04.109Z,99297.41
2023-09-11T12:36:07.898Z,99283.53
2023-09-11T12:41:13.378Z,99291.66
2023-09-11T12:46:17.554Z,99287.19
2023-09-11T12:51:21.117Z,99279.59
2023-09-11T12:56:25.834Z,99278.84
2023-09-11T13:01:33.473Z,99278.22
2023-09-11T13:06:37.314Z,99262.59
2023-09-11T13:11:42.881Z,99259.44
2023-09-11T13:16:46.960Z,99251.69
2023-09-11T13:21:50.304Z,99251.91
2023-09-11T13:26:55.250Z,99251.59
2023-09-11T13:31:58.649Z,99238.19
2023-09-11T13:37:02.076Z,99225.75
2023-09-11T13:42:06.984Z,99225.16
2023-09-11T13:47:10.487Z,99216.50
2023-09-11T13:52:14.262Z,99213.63
2023-09-11T13:57:19.024Z,99215.13
2023-09-11T14:02:22.555Z,99212.44
2023-09-11T14:07:27.540Z,99207.38
2023-09-11T14:12:32.394Z,99198.94
2023-09-11T14:17:35.956Z,99199.91
2023-09-11T14:22:40.852Z,99190.91
2023-09-11T14:27:45.878Z,99191.31
2023-09-11T14:32:50.168Z,99194.75
2023-09-11T14:37:54.116Z,99186.44
2023-09-11T14:42:59.251Z,99190.63
2023-09-11T14:48:02.923Z,99188.19
2023-09-11T14:53:06.362Z,99186.91
2023-09-11T14:58:11.475Z,99187.13
2023-09-11T15:03:15.036Z,99183.84
2023-09-11T15:08:18.534Z,99175.31
2023-09-11T15:13:23.277Z,99165.00
2023-09-11T15:18:27.409Z,99162.84
2023-09-11T15:23:31.128Z,99153.84
2023-09-11T15:28:36.056Z,99156.78
2023-09-11T15:33:39.527Z,99154.47
2023-09-11T15:38:44.898Z,99146.47
2023-09-11T15:43:50.232Z,99147.16
2023-09-11T15:48:53.741Z,99151.78
2023-09-11T15:53:57.022Z,99150.69
2023-09-11T15:59:01.881Z,99138.19
2023-09-11T16:04:05.398Z,99141.06
2023-09-11T16:09:08.873Z,99139.97
2023-09-11T16:14:13.736Z,99145.59
2023-09-11T16:19:19.957Z,99143.09
2023-09-11T16:24:23.426Z,99142.75
2023-09-11T16:29:28.298Z,99136.19
2023-09-11T16:34:31.757Z,99143.28
2023-09-11T16:39:35.341Z,99139.69
2023-09-11T16:44:40.603Z,99139.16
2023-09-11T16:49:44.277Z,99138.06
2023-09-11T16:54:47.926Z,99136.97
2023-09-11T16:59:53.100Z,99124.22
2023-09-11T17:04:57.161Z,99131.25
2023-09-11T17:10:00.574Z,99139.31
2023-09-11T17:15:06.371Z,99125.09
2023-09-11T17:20:10.913Z,99128.66
2023-09-11T17:25:14.763Z,99124.91
2023-09-11T17:30:19.571Z,99128.56
2023-09-11T17:35:23.028Z,99120.44
2023-09-11T17:40:26.480Z,99119.69
2023-09-11T17:45:31.596Z,99120.94
2023-09-11T17:50:35.276Z,99115.03
2023-09-11T17:55:38.556Z,99119.31
2023-09-11T18:00:43.371Z,99121.16
2023-09-11T18:05:51.669Z,99122.13
2023-09-11T18:10:55.377Z,99117.59
2023-09-11T18:16:00.039Z,99132.53
2023-09-11T18:21:03.746Z,99141.72
2023-09-11T18:26:07.315Z,99139.31
2023-09-11T18:31:12.170Z,99142.41
2023-09-11T18:36:16.608Z,99145.66
2023-09-11T18:41:20.383Z,99151.31
2023-09-11T18:46:25.684Z,99155.16
2023-09-11T18:51:29.890Z,99159.22
2023-09-11T18:56:33.342Z,99162.09
2023-09-11T19:01:39.832Z,99170.69
2023-09-11T19:06:44.803Z,99171.38
2023-09-11T19:11:48.279Z,99165.56
2023-09-11T19:16:53.970Z,99169.50
2023-09-11T19:21:57.549Z,99164.19
2023-09-11T19:27:00.858Z,99164.75
2023-09-11T19:32:06.986Z,99159.16
2023-09-11T19:37:10.403Z,99168.59
2023-09-11T19:42:14.719Z,99172.16
2023-09-11T19:47:19.408Z,99162.09
2023-09-11T19:52:22.997Z,99164.78
2023-09-11T19:57:27.557Z,99163.16
2023-09-11T20:02:32.791Z,99166.59
2023-09-11T20:07:36.420Z,99159.16
2023-09-11T20:12:39.671Z,99157.34
2023-09-11T20:17:44.287Z,99144.69
2023-09-11T20:22:47.695Z,99143.91
2023-09-11T20:27:50.983Z,99142.69
2023-09-11T20:32:55.828Z,99145.13
2023-09-11T20:37:59.199Z,99128.44
2023-09-11T20:43:02.453Z,99129.34
2023-09-11T20:48:07.741Z,99134.69
2023-09-11T20:53:11.115Z,99130.09
2023-09-11T20:58:14.448Z,99130.97
2023-09-11T21:03:19.344Z,99131.84
2023-09-11T21:08:22.938Z,99134.91
2023-09-11T21:13:27.318Z,99133.28
2023-09-11T21:18:32.035Z,99129.50
2023-09-11T21:23:35.689Z,99124.44
2023-09-11T21:28:40.361Z,99124.50
2023-09-11T21:33:45.271Z,99113.53
2023-09-11T21:38:48.556Z,99126.72
2023-09-11T21:43:52.089Z,99121.72
2023-09-11T21:48:57.092Z,99122.56
2023-09-11T21:54:13.417Z,99124.94
2023-09-11T21:59:17.746Z,99125.63
2023-09-11T22:04:22.301Z,99126.25
2023-09-11T22:09:25.641Z,99126.72
2023-09-11T22:14:28.856Z,99130.31
2023-09-11T22:19:33.407Z,99127.56
2023-09-11T22:24:36.564Z,99132.47
2023-09-11T22:29:39.731Z,99125.09
2023-09-11T22:34:44.488Z,99132.06
2023-09-11T22:39:48.185Z,99137.19
2023-09-11T22:44:52.334Z,99130.41
2023-09-11T22:49:57.694Z,99142.06
2023-09-11T22:55:01.331Z,99134.28
2023-09-11T23:00:05.758Z,99144.00
2023-09-11T23:05:10.999Z,99145.94
2023-09-11T23:10:14.196Z,99145.94
2023-09-11T23:15:17.639Z,99153.81
2023-09-11T23:20:22.243Z,99152.53
2023-09-11T23:25:25.359Z,99159.53
2023-09-11T23:30:29.344Z,99159.31
2023-09-11T23:35:34.030Z,99162.47
2023-09-11T23:40:37.220Z,99151.50
2023-09-11T23:45:40.663Z,99162.31
2023-09-11T23:50:46.681Z,99175.84
2023-09-11T23:55:50.000Z,99167.38
